Time;durP1;ratioP1;P1;durP2;ratioP2;P2;SDS_P1;SDS_P2;PMS_P1;PMS_P2;Temp;Humidity;BMP_temperature;BMP_pressure;BME280_temperature;BME280_humidity;BME280_pressure;Samples;Min_cycle;Max_cycle;Signal;HPM_P1;HPM_P2
2022/03/26 00:00:24;;;;;;;67.75;35.80;;;4.30;99.90;;;;;;5054320;28;20044;-67
2022/03/26 00:02:53;;;;;;;65.18;34.38;;;4.30;99.90;;;;;;5037827;28;20048;-66
2022/03/26 00:05:19;;;;;;;61.05;33.25;;;4.30;99.90;;;;;;5055339;28;20045;-67
2022/03/26 00:07:45;;;;;;;60.42;32.58;;;4.30;99.90;;;;;;5053134;28;20068;-66
2022/03/26 00:10:12;;;;;;;53.92;29.73;;;4.30;99.90;;;;;;5053920;28;20044;-67
2022/03/26 00:12:39;;;;;;;54.35;31.45;;;4.30;99.90;;;;;;5054088;28;20044;-67
2022/03/26 00:15:07;;;;;;;61.50;30.67;;;4.30;99.90;;;;;;5055213;28;20068;-67
2022/03/26 00:17:34;;;;;;;64.97;35.20;;;4.40;99.90;;;;;;5054128;28;20049;-67
2022/03/26 00:20:00;;;;;;;68.53;36.75;;;4.30;99.90;;;;;;5053714;28;20033;-67
2022/03/26 00:22:25;;;;;;;59.70;33.22;;;4.40;99.90;;;;;;5087224;28;20051;-67
2022/03/26 00:24:51;;;;;;;58.75;30.98;;;4.40;99.90;;;;;;5054877;28;20072;-67
2022/03/26 00:27:17;;;;;;;58.95;32.38;;;4.30;99.90;;;;;;5053737;28;20071;-67
2022/03/26 00:29:44;;;;;;;64.60;33.97;;;4.30;99.90;;;;;;5053613;28;20045;-66
2022/03/26 00:32:10;;;;;;;63.90;34.25;;;4.30;99.90;;;;;;5054927;28;20073;-67
2022/03/26 00:34:36;;;;;;;69.13;37.67;;;4.30;99.90;;;;;;5054684;28;20497;-67
2022/03/26 00:37:02;;;;;;;64.40;35.95;;;4.30;99.90;;;;;;5068027;28;20041;-67
2022/03/26 00:39:28;;;;;;;59.42;33.90;;;4.30;99.90;;;;;;5054844;28;20041;-67
2022/03/26 00:41:54;;;;;;;61.28;34.67;;;4.30;99.90;;;;;;5087219;28;20048;-67
2022/03/26 00:44:20;;;;;;;51.75;29.73;;;4.30;99.90;;;;;;5053335;28;20143;-67
2022/03/26 00:46:46;;;;;;;49.50;28.35;;;4.30;99.90;;;;;;5054526;28;20091;-67
2022/03/26 00:49:17;;;;;;;62.67;34.63;;;4.20;99.90;;;;;;5087115;28;20047;-67
2022/03/26 00:51:43;;;;;;;60.92;35.42;;;4.10;99.90;;;;;;5054507;28;20044;-66
2022/03/26 00:54:09;;;;;;;70.20;36.63;;;4.10;99.90;;;;;;5054298;28;20370;-67
2022/03/26 00:56:36;;;;;;;61.67;35.47;;;4.10;99.90;;;;;;5053403;28;20077;-67
2022/03/26 00:59:02;;;;;;;66.70;35.30;;;4.10;99.90;;;;;;5086676;28;20098;-66
2022/03/26 01:01:28;;;;;;;67.57;36.03;;;4.10;99.90;;;;;;5052899;28;20041;-67
2022/03/26 01:03:54;;;;;;;78.22;39.30;;;4.00;99.90;;;;;;5053991;28;20041;-67
2022/03/26 01:06:20;;;;;;;78.28;40.65;;;4.00;99.90;;;;;;5051892;28;20044;-66
2022/03/26 01:08:46;;;;;;;78.38;40.58;;;4.00;99.90;;;;;;5053326;28;20501;-67
2022/03/26 01:11:12;;;;;;;83.68;41.92;;;4.00;99.90;;;;;;5054260;28;20041;-66
2022/03/26 01:13:39;;;;;;;84.05;43.75;;;4.00;99.90;;;;;;5052996;28;20037;-67
2022/03/26 01:16:08;;;;;;;89.75;45.03;;;4.00;99.90;;;;;;5052537;28;20099;-67
2022/03/26 01:18:34;;;;;;;87.47;44.35;;;4.00;99.90;;;;;;5033297;28;20072;-67
2022/03/26 01:21:00;;;;;;;82.38;43.75;;;4.00;99.90;;;;;;5052743;28;20097;-67
2022/03/26 01:23:26;;;;;;;89.00;45.17;;;4.00;99.90;;;;;;5035820;28;20124;-67
2022/03/26 01:25:52;;;;;;;80.47;43.15;;;4.00;99.90;;;;;;5052390;28;20128;-67
2022/03/26 01:28:18;;;;;;;85.38;45.00;;;4.00;99.90;;;;;;5052580;28;20053;-67
2022/03/26 01:30:45;;;;;;;88.10;46.75;;;4.00;99.90;;;;;;5035721;28;20041;-67
2022/03/26 01:33:12;;;;;;;85.85;44.15;;;3.90;99.90;;;;;;5052650;28;20072;-67
2022/03/26 01:35:38;;;;;;;77.72;38.72;;;4.00;99.90;;;;;;5052205;28;20044;-67
2022/03/26 01:38:06;;;;;;;79.07;38.78;;;3.90;99.90;;;;;;5050159;28;20115;-67
2022/03/26 01:40:33;;;;;;;75.35;38.58;;;3.90;99.90;;;;;;5052420;28;20037;-67
2022/03/26 01:42:59;;;;;;;86.32;41.33;;;3.80;99.90;;;;;;5053615;28;20056;-67
2022/03/26 01:45:29;;;;;;;83.53;43.22;;;3.80;99.90;;;;;;5053380;28;20148;-66
2022/03/26 01:47:56;;;;;;;87.80;45.95;;;3.70;99.90;;;;;;5053330;28;20056;-66
2022/03/26 01:50:24;;;;;;;117.93;56.20;;;3.70;99.90;;;;;;5051931;28;20044;-67
2022/03/26 01:52:49;;;;;;;110.50;52.75;;;3.70;99.90;;;;;;5035698;28;20041;-67
2022/03/26 01:55:16;;;;;;;101.53;51.22;;;3.80;99.90;;;;;;5053274;28;20037;-67
2022/03/26 01:57:42;;;;;;;108.85;52.05;;;3.70;99.90;;;;;;5051931;28;20075;-67
2022/03/26 02:00:08;;;;;;;98.15;49.50;;;3.80;99.90;;;;;;5053214;28;20041;-67
2022/03/26 02:02:35;;;;;;;102.40;50.95;;;3.80;99.90;;;;;;5052819;28;20106;-67
2022/03/26 02:05:01;;;;;;;115.63;54.30;;;3.70;99.90;;;;;;5052960;28;20048;-67
2022/03/26 02:07:27;;;;;;;95.85;47.97;;;3.70;99.90;;;;;;5051136;28;20041;-67
2022/03/26 02:09:53;;;;;;;92.07;44.28;;;3.70;99.90;;;;;;5053173;28;20136;-67
2022/03/26 02:12:27;;;;;;;90.25;44.38;;;3.70;99.90;;;;;;5035349;28;20041;-67
2022/03/26 02:14:54;;;;;;;93.80;44.42;;;3.60;99.90;;;;;;5084822;28;20150;-66
2022/03/26 02:17:20;;;;;;;112.63;48.60;;;3.60;99.90;;;;;;5052555;28;20037;-66
2022/03/26 02:19:50;;;;;;;103.28;50.08;;;3.50;99.90;;;;;;5085208;28;20091;-67
2022/03/26 02:22:16;;;;;;;107.43;46.58;;;3.50;99.90;;;;;;5085068;28;20495;-67
2022/03/26 02:24:42;;;;;;;97.22;45.17;;;3.50;99.90;;;;;;5084942;28;20068;-67
2022/03/26 02:27:09;;;;;;;95.95;44.17;;;3.40;99.90;;;;;;5085006;28;20049;-66
2022/03/26 02:29:35;;;;;;;94.55;44.35;;;3.40;99.90;;;;;;5085412;28;20453;-66
2022/03/26 02:32:01;;;;;;;92.45;42.88;;;3.40;99.90;;;;;;5052598;28;20036;-67
2022/03/26 02:34:27;;;;;;;112.13;47.40;;;3.40;99.90;;;;;;5051508;28;20033;-67
2022/03/26 02:36:58;;;;;;;111.18;48.85;;;3.30;99.90;;;;;;5065816;28;20041;-67
2022/03/26 02:39:24;;;;;;;112.82;50.08;;;3.20;99.90;;;;;;5051661;28;20029;-67
2022/03/26 02:41:50;;;;;;;127.93;53.03;;;3.20;99.90;;;;;;5051221;28;20048;-67
2022/03/26 02:44:16;;;;;;;110.50;50.78;;;3.10;99.90;;;;;;5051456;28;20048;-67
2022/03/26 02:46:45;;;;;;;132.98;46.33;;;3.10;99.90;;;;;;5051218;28;20128;-67
2022/03/26 02:49:12;;;;;;;122.45;48.03;;;3.10;99.90;;;;;;5051306;28;20493;-67
2022/03/26 02:51:38;;;;;;;111.57;48.90;;;3.10;99.90;;;;;;5084721;28;20044;-67
2022/03/26 02:54:04;;;;;;;119.97;47.40;;;3.00;99.90;;;;;;5051460;28;20378;-67
2022/03/26 02:56:30;;;;;;;115.18;49.65;;;3.00;99.90;;;;;;5067858;28;20048;-67
2022/03/26 02:58:56;;;;;;;120.63;53.33;;;3.00;99.90;;;;;;5052290;28;20037;-67
2022/03/26 03:01:23;;;;;;;110.18;49.83;;;2.90;99.90;;;;;;5084625;28;20041;-67
2022/03/26 03:03:50;;;;;;;122.93;46.60;;;2.90;99.90;;;;;;5052467;28;20056;-67
2022/03/26 03:06:16;;;;;;;124.43;48.72;;;2.90;99.90;;;;;;5048891;28;20053;-67
2022/03/26 03:08:43;;;;;;;128.57;47.67;;;2.80;99.90;;;;;;5051390;28;20045;-67
2022/03/26 03:11:09;;;;;;;95.97;42.67;;;2.70;99.90;;;;;;5050976;28;20045;-67
2022/03/26 03:13:35;;;;;;;100.80;42.75;;;2.70;99.90;;;;;;5052223;28;20041;-67
2022/03/26 03:16:01;;;;;;;104.93;44.95;;;2.60;99.90;;;;;;5050864;28;20056;-66
2022/03/26 03:18:27;;;;;;;100.50;42.22;;;2.60;99.90;;;;;;5051251;28;20041;-66
2022/03/26 03:20:53;;;;;;;109.53;47.58;;;2.50;99.90;;;;;;5034434;28;20068;-67
2022/03/26 03:23:19;;;;;;;112.70;45.78;;;2.40;99.90;;;;;;5050794;28;20068;-66
2022/03/26 03:25:45;;;;;;;120.13;51.03;;;2.40;99.90;;;;;;5051313;28;20052;-67
2022/03/26 03:28:10;;;;;;;141.90;56.20;;;2.20;99.90;;;;;;5054311;28;20041;-67
2022/03/26 03:30:36;;;;;;;136.15;56.92;;;2.20;99.90;;;;;;5055263;28;20041;-67
2022/03/26 03:33:02;;;;;;;152.25;61.00;;;2.20;99.90;;;;;;5053964;28;20045;-67
2022/03/26 03:35:28;;;;;;;158.95;57.88;;;2.30;99.90;;;;;;5053638;28;20071;-67
2022/03/26 03:37:54;;;;;;;148.32;56.92;;;2.30;99.90;;;;;;5052493;28;20045;-67
2022/03/26 03:40:20;;;;;;;168.10;63.28;;;2.30;99.90;;;;;;5053860;28;20041;-67
2022/03/26 03:42:46;;;;;;;174.30;62.35;;;2.30;99.90;;;;;;5053467;28;20496;-67
2022/03/26 03:45:12;;;;;;;165.00;62.03;;;2.40;99.90;;;;;;5054755;28;20052;-66
2022/03/26 03:47:38;;;;;;;144.27;59.15;;;2.40;99.90;;;;;;5054631;28;20053;-66
2022/03/26 03:50:05;;;;;;;163.20;65.07;;;2.40;99.90;;;;;;5053402;28;20119;-67
2022/03/26 03:52:31;;;;;;;152.00;62.78;;;2.40;99.90;;;;;;5053320;28;20523;-66
2022/03/26 03:54:57;;;;;;;161.82;69.65;;;2.40;99.90;;;;;;5053273;28;20057;-67
2022/03/26 03:57:22;;;;;;;136.52;59.35;;;2.50;99.90;;;;;;5054454;28;20037;-67
2022/03/26 03:59:48;;;;;;;144.63;59.42;;;2.50;99.90;;;;;;5054543;28;20382;-67
2022/03/26 04:02:14;;;;;;;149.38;61.75;;;2.50;99.90;;;;;;5053172;28;20041;-67
2022/03/26 04:04:41;;;;;;;119.90;53.47;;;2.50;99.90;;;;;;5053194;28;20051;-67
2022/03/26 04:07:08;;;;;;;126.28;52.55;;;2.50;99.90;;;;;;5050748;28;20055;-66
2022/03/26 04:09:35;;;;;;;125.75;51.97;;;2.50;99.90;;;;;;5036723;28;20401;-66
2022/03/26 04:12:01;;;;;;;101.68;42.65;;;2.50;99.90;;;;;;5053074;28;20128;-67
2022/03/26 04:14:27;;;;;;;98.38;45.75;;;2.50;99.90;;;;;;5054346;28;20582;-66
2022/03/26 04:16:53;;;;;;;89.65;43.80;;;2.50;99.90;;;;;;5054148;28;20072;-66
2022/03/26 04:19:19;;;;;;;104.53;43.22;;;2.50;99.90;;;;;;5086631;28;20072;-67
2022/03/26 04:21:46;;;;;;;93.85;40.72;;;2.50;99.90;;;;;;5086335;28;20092;-66
2022/03/26 04:24:12;;;;;;;89.78;41.85;;;2.40;99.90;;;;;;5052709;28;20096;-67
2022/03/26 04:26:39;;;;;;;102.80;47.75;;;2.40;99.90;;;;;;5086396;28;20436;-67
2022/03/26 04:29:04;;;;;;;105.20;44.83;;;2.30;99.90;;;;;;5036344;28;20103;-67
2022/03/26 04:31:30;;;;;;;124.93;49.47;;;2.30;99.90;;;;;;5054151;28;20045;-67
2022/03/26 04:34:01;;;;;;;101.10;44.47;;;2.30;99.90;;;;;;5052590;28;20086;-67
2022/03/26 04:36:30;;;;;;;108.22;44.40;;;2.30;99.90;;;;;;5051707;28;20482;-66
2022/03/26 04:38:57;;;;;;;102.30;44.85;;;2.30;99.90;;;;;;5085480;28;20041;-67
2022/03/26 04:41:23;;;;;;;133.10;47.05;;;2.20;99.90;;;;;;5053741;28;20060;-66
2022/03/26 04:43:49;;;;;;;125.95;43.72;;;2.20;99.90;;;;;;5052440;28;20473;-66
2022/03/26 04:46:15;;;;;;;144.05;47.97;;;2.10;99.90;;;;;;5086286;28;20044;-67
2022/03/26 04:48:41;;;;;;;266.00;58.67;;;2.10;99.90;;;;;;5085831;28;20570;-67
2022/03/26 04:51:07;;;;;;;326.23;58.30;;;2.10;99.90;;;;;;5053691;28;20401;-66
2022/03/26 04:53:34;;;;;;;179.10;49.50;;;2.10;99.90;;;;;;5035457;28;20055;-67
2022/03/26 04:55:59;;;;;;;144.75;53.88;;;2.10;99.90;;;;;;5053647;28;20060;-67
2022/03/26 04:58:25;;;;;;;128.00;48.20;;;2.10;99.90;;;;;;5052381;28;20048;-67
2022/03/26 05:00:51;;;;;;;128.85;49.03;;;2.10;99.90;;;;;;5052400;28;20028;-67
2022/03/26 05:03:17;;;;;;;157.68;51.90;;;2.20;99.90;;;;;;5085555;28;20405;-67
2022/03/26 05:05:42;;;;;;;323.23;67.88;;;2.20;99.90;;;;;;5085927;28;20111;-67
2022/03/26 05:08:08;;;;;;;232.15;62.63;;;2.20;99.90;;;;;;5066308;28;20128;-67
2022/03/26 05:10:34;;;;;;;124.25;52.65;;;2.20;99.90;;;;;;5068890;28;20080;-66
2022/03/26 05:13:00;;;;;;;122.80;52.35;;;2.20;99.90;;;;;;5026038;28;20517;-67
2022/03/26 05:15:27;;;;;;;124.03;52.08;;;2.20;99.90;;;;;;5031979;28;20509;-67
2022/03/26 05:17:54;;;;;;;80.10;35.15;;;2.20;99.90;;;;;;5031872;28;20068;-67
2022/03/26 05:20:20;;;;;;;105.93;44.30;;;2.20;99.90;;;;;;5031925;28;20096;-67
2022/03/26 05:22:47;;;;;;;90.10;40.05;;;2.20;99.90;;;;;;5065223;28;20045;-66
2022/03/26 05:25:15;;;;;;;92.65;38.80;;;2.10;99.90;;;;;;5048197;28;20064;-67
2022/03/26 05:27:50;;;;;;;83.10;40.10;;;2.10;99.90;;;;;;5015468;28;20436;-67
2022/03/26 05:30:18;;;;;;;88.10;39.90;;;2.00;99.90;;;;;;5031953;28;20101;-67
2022/03/26 05:32:44;;;;;;;86.78;40.70;;;2.00;99.90;;;;;;5064889;28;20055;-67
2022/03/26 05:35:16;;;;;;;133.93;42.92;;;1.90;99.90;;;;;;5031468;28;20532;-67
2022/03/26 05:37:47;;;;;;;106.85;42.47;;;1.90;99.90;;;;;;5030277;28;20046;-66
2022/03/26 05:40:16;;;;;;;;;;;1.90;99.90;;;;;;5031925;28;20045;-67
2022/03/26 05:42:42;;;;;;;96.20;38.45;;;1.90;99.90;;;;;;5032683;28;20411;-67
2022/03/26 05:45:09;;;;;;;137.05;43.33;;;1.90;99.90;;;;;;5031636;28;20037;-67
2022/03/26 05:47:36;;;;;;;99.85;39.15;;;1.90;99.90;;;;;;5031283;28;20057;-67
2022/03/26 05:50:04;;;;;;;93.38;38.78;;;1.90;99.90;;;;;;5047138;28;20052;-66
2022/03/26 05:52:29;;;;;;;111.60;43.08;;;1.90;99.90;;;;;;5032405;28;20064;-66
2022/03/26 05:54:55;;;;;;;117.57;45.72;;;1.90;99.90;;;;;;5047762;28;20046;-67
2022/03/26 05:57:21;;;;;;;97.47;43.25;;;1.90;99.90;;;;;;5032432;28;20072;-67
2022/03/26 05:59:48;;;;;;;102.20;43.90;;;1.90;99.90;;;;;;5032321;28;20076;-67
2022/03/26 06:02:15;;;;;;;98.03;41.13;;;2.00;99.90;;;;;;5032093;28;20095;-66
2022/03/26 06:04:41;;;;;;;110.20;42.03;;;2.10;99.90;;;;;;5032945;28;20045;-66
2022/03/26 06:07:07;;;;;;;112.82;45.58;;;2.10;99.90;;;;;;5031163;28;20041;-66
2022/03/26 06:09:34;;;;;;;111.47;46.28;;;2.20;99.90;;;;;;5033198;28;20044;-67
2022/03/26 06:12:00;;;;;;;108.53;45.05;;;2.30;99.90;;;;;;5049781;28;20080;-67
2022/03/26 06:14:26;;;;;;;129.75;44.13;;;2.40;99.90;;;;;;5085325;28;20153;-67
2022/03/26 06:16:52;;;;;;;121.07;44.70;;;2.50;99.90;;;;;;5052003;28;20060;-67
2022/03/26 06:19:18;;;;;;;132.80;47.33;;;2.60;99.90;;;;;;5051883;28;20496;-67
2022/03/26 06:21:44;;;;;;;127.78;47.10;;;2.60;99.90;;;;;;5051055;28;20045;-66
2022/03/26 06:24:10;;;;;;;136.57;55.25;;;2.70;99.90;;;;;;5050691;28;20158;-67
2022/03/26 06:26:37;;;;;;;148.57;58.25;;;2.90;99.90;;;;;;5051899;28;20513;-67
2022/03/26 06:29:04;;;;;;;133.57;53.40;;;3.20;99.90;;;;;;5067269;28;20099;-67
2022/03/26 06:31:29;;;;;;;133.82;56.17;;;3.60;99.90;;;;;;5084116;28;20045;-67
2022/03/26 06:33:55;;;;;;;114.47;52.38;;;4.10;99.90;;;;;;5050481;28;20033;-67
2022/03/26 06:36:22;;;;;;;99.65;44.25;;;4.40;99.90;;;;;;5064814;28;20728;-67
2022/03/26 06:38:48;;;;;;;94.18;45.90;;;4.90;99.90;;;;;;5051688;28;20041;-67
2022/03/26 06:41:15;;;;;;;100.28;49.45;;;5.20;99.90;;;;;;5051751;28;20048;-67
2022/03/26 06:43:42;;;;;;;101.68;53.30;;;5.60;99.90;;;;;;5051661;28;20505;-67
2022/03/26 06:46:09;;;;;;;93.70;46.97;;;6.10;99.90;;;;;;5084222;28;20136;-68
2022/03/26 06:48:35;;;;;;;80.97;43.50;;;6.50;99.90;;;;;;5050374;28;20040;-68
2022/03/26 06:51:02;;;;;;;86.10;46.38;;;6.80;99.90;;;;;;5050704;28;20049;-67
2022/03/26 06:53:31;;;;;;;92.60;47.58;;;7.10;99.90;;;;;;5083816;28;20063;-67
2022/03/26 06:55:57;;;;;;;104.75;55.35;;;7.40;99.90;;;;;;5083865;28;20041;-67
2022/03/26 06:58:24;;;;;;;124.18;63.35;;;7.60;99.90;;;;;;5033871;28;20070;-67
2022/03/26 07:00:50;;;;;;;129.27;66.88;;;7.70;99.90;;;;;;5067143;28;20052;-67
2022/03/26 07:03:16;;;;;;;129.55;65.72;;;7.90;99.90;;;;;;5087531;28;20194;-67
2022/03/26 07:05:42;;;;;;;128.50;67.25;;;8.10;99.90;;;;;;5054340;28;20044;-67
2022/03/26 07:08:09;;;;;;;120.78;63.40;;;8.20;99.90;;;;;;5053325;28;20045;-67
2022/03/26 07:10:35;;;;;;;118.72;63.50;;;8.30;99.90;;;;;;5055532;28;20433;-67
2022/03/26 07:13:03;;;;;;;122.75;62.90;;;8.40;99.90;;;;;;5046339;28;20041;-68
2022/03/26 07:15:31;;;;;;;111.93;60.65;;;8.40;99.90;;;;;;5035174;28;20518;-67
2022/03/26 07:17:57;;;;;;;109.65;57.92;;;8.50;99.90;;;;;;5034685;28;20108;-67
2022/03/26 07:20:24;;;;;;;108.45;62.85;;;8.50;99.90;;;;;;5034223;28;20116;-67
2022/03/26 07:22:50;;;;;;;122.95;65.97;;;8.40;99.90;;;;;;5035452;28;20033;-68
2022/03/26 07:25:16;;;;;;;121.50;62.08;;;8.40;99.90;;;;;;5033943;28;20057;-67
2022/03/26 07:27:42;;;;;;;120.70;66.53;;;8.40;99.90;;;;;;5051029;28;20045;-67
2022/03/26 07:30:09;;;;;;;116.57;65.05;;;8.40;99.90;;;;;;5034075;28;20049;-67
2022/03/26 07:32:35;;;;;;;117.75;64.60;;;8.50;99.90;;;;;;5034800;28;20509;-67
2022/03/26 07:35:01;;;;;;;125.07;65.40;;;8.50;99.90;;;;;;5035099;28;20045;-67
2022/03/26 07:37:27;;;;;;;113.90;60.47;;;8.60;99.90;;;;;;5048045;28;20117;-67
2022/03/26 07:39:52;;;;;;;113.43;60.50;;;8.80;99.90;;;;;;5033735;28;20046;-68
2022/03/26 07:42:18;;;;;;;111.72;59.38;;;9.00;99.90;;;;;;5033885;28;20042;-67
2022/03/26 07:44:44;;;;;;;107.20;58.63;;;9.30;99.90;;;;;;5033779;28;20516;-68
2022/03/26 07:47:10;;;;;;;109.97;59.70;;;9.70;99.90;;;;;;5050440;28;20052;-66
2022/03/26 07:49:36;;;;;;;98.03;56.25;;;9.80;99.90;;;;;;5034943;28;20046;-66
2022/03/26 07:52:02;;;;;;;108.95;58.20;;;9.90;99.90;;;;;;5034816;28;20052;-67
2022/03/26 07:54:28;;;;;;;106.70;58.83;;;10.10;99.90;;;;;;5049892;28;20049;-67
2022/03/26 07:56:54;;;;;;;94.10;54.40;;;10.30;99.90;;;;;;5034739;28;20156;-67
2022/03/26 07:59:20;;;;;;;98.30;54.38;;;10.60;99.90;;;;;;5034453;28;20052;-67
2022/03/26 08:01:45;;;;;;;94.82;54.67;;;10.80;99.90;;;;;;5034567;28;20042;-67
2022/03/26 08:04:12;;;;;;;79.63;45.83;;;11.10;99.90;;;;;;5034731;28;20037;-67
2022/03/26 08:06:38;;;;;;;78.38;44.25;;;11.30;99.90;;;;;;5064128;28;20490;-67
2022/03/26 08:09:04;;;;;;;66.88;40.30;;;11.40;99.90;;;;;;5066547;28;20052;-67
2022/03/26 08:11:29;;;;;;;73.13;40.40;;;11.70;99.90;;;;;;5034419;28;20068;-68
2022/03/26 08:13:55;;;;;;;73.35;41.70;;;12.10;99.90;;;;;;5050122;28;20493;-67
2022/03/26 08:16:21;;;;;;;65.82;39.42;;;12.60;99.90;;;;;;5053148;28;20052;-67
2022/03/26 08:18:47;;;;;;;64.70;39.33;;;12.80;99.90;;;;;;5054420;28;20045;-67
2022/03/26 08:21:15;;;;;;;65.40;39.17;;;13.10;99.90;;;;;;5086374;28;20098;-67
2022/03/26 08:23:41;;;;;;;71.13;41.92;;;13.40;99.90;;;;;;5053940;28;20061;-67
2022/03/26 08:26:29;;;;;;;66.80;39.53;;;13.90;99.90;;;;;;5053038;28;20053;-67
2022/03/26 08:28:57;;;;;;;67.55;42.33;;;14.40;99.90;;;;;;5054224;28;20400;-67
2022/03/26 08:31:26;;;;;;;70.07;41.70;;;14.70;99.90;;;;;;5086454;28;20045;-68
2022/03/26 08:33:53;;;;;;;65.78;39.20;;;14.90;99.90;;;;;;5053902;28;20049;-68
2022/03/26 08:36:19;;;;;;;67.35;42.30;;;15.20;99.90;;;;;;5066701;28;20045;-67
2022/03/26 08:38:46;;;;;;;65.47;42.92;;;15.50;99.90;;;;;;5053928;28;20041;-68
2022/03/26 08:41:20;;;;;;;66.88;42.30;;;15.80;99.90;;;;;;5086280;28;20071;-67
2022/03/26 08:43:47;;;;;;;63.20;40.17;;;16.10;99.90;;;;;;5053771;28;20040;-67
2022/03/26 08:46:13;;;;;;;63.47;40.40;;;16.30;99.90;;;;;;5052529;28;20057;-68
2022/03/26 08:48:39;;;;;;;64.03;39.63;;;16.50;99.90;;;;;;5052675;28;20443;-67
2022/03/26 08:51:05;;;;;;;61.50;39.50;;;16.70;99.90;;;;;;5052339;28;20053;-67
2022/03/26 08:53:32;;;;;;;65.32;40.53;;;16.70;99.10;;;;;;5053568;28;20386;-68
2022/03/26 08:55:58;;;;;;;62.45;40.35;;;16.80;98.40;;;;;;5053575;28;20037;-67
2022/03/26 08:58:24;;;;;;;58.97;40.47;;;17.00;97.70;;;;;;5052148;28;20037;-67
2022/03/26 09:00:51;;;;;;;56.65;35.70;;;17.30;97.10;;;;;;5058544;28;20037;-67
2022/03/26 09:03:21;;;;;;;52.00;34.70;;;17.50;94.70;;;;;;5085610;28;20044;-67
2022/03/26 09:05:51;;;;;;;54.28;36.67;;;17.60;92.70;;;;;;5085699;28;20440;-67
2022/03/26 09:08:17;;;;;;;55.88;34.08;;;17.80;91.90;;;;;;5050893;28;20032;-64
2022/03/26 09:10:43;;;;;;;58.10;36.63;;;18.10;90.50;;;;;;5051994;28;20382;-65
2022/03/26 09:13:10;;;;;;;58.33;35.72;;;18.40;88.00;;;;;;5044016;28;20052;-65
2022/03/26 09:15:36;;;;;;;60.85;36.10;;;18.60;84.60;;;;;;5048488;28;20045;-67
2022/03/26 09:18:02;;;;;;;52.22;33.75;;;18.60;82.60;;;;;;5031884;28;20056;-67
2022/03/26 09:20:28;;;;;;;50.75;34.85;;;18.80;80.40;;;;;;5065412;28;20047;-67
2022/03/26 09:22:54;;;;;;;54.63;36.35;;;19.10;78.80;;;;;;5033018;28;20041;-67
2022/03/26 09:25:20;;;;;;;51.75;34.67;;;19.00;75.90;;;;;;5031295;28;20060;-67
2022/03/26 09:27:47;;;;;;;66.50;38.95;;;19.10;75.80;;;;;;5065148;28;20053;-67
2022/03/26 09:30:15;;;;;;;50.92;35.03;;;19.20;76.10;;;;;;5031938;28;20052;-67
2022/03/26 09:32:41;;;;;;;56.40;35.75;;;19.50;76.40;;;;;;5032925;28;20124;-67
2022/03/26 09:35:08;;;;;;;56.60;36.22;;;19.80;73.30;;;;;;5032711;28;20037;-67
2022/03/26 09:37:34;;;;;;;50.35;32.17;;;20.00;72.20;;;;;;5029194;28;20040;-67
2022/03/26 09:40:02;;;;;;;53.08;31.45;;;20.00;71.80;;;;;;5031553;28;20111;-67
2022/03/26 09:42:28;;;;;;;48.75;32.08;;;20.40;71.70;;;;;;5064933;28;20037;-67
2022/03/26 09:44:56;;;;;;;51.83;33.08;;;20.70;70.30;;;;;;5033003;28;20060;-67
2022/03/26 09:47:22;;;;;;;53.95;33.83;;;21.00;69.90;;;;;;5032492;28;20057;-67
2022/03/26 09:49:48;;;;;;;49.60;33.13;;;21.30;67.80;;;;;;5031573;28;20049;-65
2022/03/26 09:52:14;;;;;;;45.58;31.45;;;21.20;66.30;;;;;;5032369;28;20055;-64
2022/03/26 09:54:40;;;;;;;44.55;30.23;;;21.10;66.40;;;;;;5032676;28;20049;-64
2022/03/26 09:57:07;;;;;;;42.40;29.85;;;21.00;66.10;;;;;;5031149;28;20081;-65
2022/03/26 09:59:33;;;;;;;40.85;28.58;;;21.00;66.30;;;;;;5032553;28;20128;-64
2022/03/26 10:02:01;;;;;;;45.08;29.15;;;21.10;66.50;;;;;;5031187;28;20037;-64
2022/03/26 10:04:39;;;;;;;40.47;27.80;;;21.30;65.70;;;;;;5064321;28;20099;-65
2022/03/26 10:07:05;;;;;;;36.38;26.73;;;21.40;66.40;;;;;;5013451;28;20635;-65
2022/03/26 10:09:36;;;;;;;44.03;28.95;;;21.50;65.30;;;;;;5051621;28;20497;-65
2022/03/26 10:12:12;;;;;;;36.20;27.95;;;21.60;67.90;;;;;;5034194;28;20045;-65
2022/03/26 10:14:56;;;;;;;43.33;31.65;;;21.90;68.00;;;;;;5051045;28;20446;-64
2022/03/26 10:17:30;;;;;;;42.53;31.70;;;22.10;68.20;;;;;;5052134;28;20048;-64
2022/03/26 10:19:58;;;;;;;48.53;32.65;;;22.30;68.80;;;;;;5052214;28;20127;-65
2022/03/26 10:22:29;;;;;;;42.92;32.38;;;22.30;66.90;;;;;;5050908;28;20041;-64
2022/03/26 10:25:03;;;;;;;43.60;33.13;;;22.30;67.70;;;;;;5050466;28;20060;-65
2022/03/26 10:27:42;;;;;;;43.63;32.05;;;22.50;67.70;;;;;;5050456;28;20555;-64
2022/03/26 10:30:13;;;;;;;43.10;31.25;;;22.80;66.30;;;;;;5051120;28;20413;-64
2022/03/26 10:32:43;;;;;;;42.13;32.90;;;22.70;65.90;;;;;;5050733;28;20452;-65
2022/03/26 10:35:13;;;;;;;;;;;22.70;65.80;;;;;;5051029;28;20080;-64
2022/03/26 10:37:43;;;;;;;33.58;28.48;;;22.90;63.90;;;;;;5047588;28;19917;-64
2022/03/26 10:40:16;;;;;;;37.70;29.15;;;23.20;65.30;;;;;;5051675;28;20044;-64
2022/03/26 10:42:42;;;;;;;41.88;31.30;;;23.30;64.40;;;;;;5051990;28;20380;-65
2022/03/26 10:45:14;;;;;;;40.03;30.38;;;23.40;63.30;;;;;;5051583;28;20045;-65
2022/03/26 10:47:40;;;;;;;33.80;23.95;;;23.40;62.90;;;;;;5050209;28;20120;-65
2022/03/26 10:50:06;;;;;;;28.52;21.80;;;23.20;63.40;;;;;;5050230;28;20131;-64
2022/03/26 10:52:32;;;;;;;26.45;20.63;;;23.30;63.60;;;;;;5030770;28;20287;-65
2022/03/26 10:55:00;;;;;;;24.08;19.50;;;23.40;62.40;;;;;;5050446;28;20047;-64
2022/03/26 10:57:28;;;;;;;32.70;22.90;;;23.50;62.10;;;;;;5050660;28;20076;-65
2022/03/26 10:59:55;;;;;;;26.88;20.40;;;23.50;62.40;;;;;;5050266;28;20041;-64
2022/03/26 11:02:21;;;;;;;30.10;22.50;;;23.60;62.20;;;;;;5051521;28;20048;-64
2022/03/26 11:04:47;;;;;;;24.85;20.45;;;23.50;60.40;;;;;;5026623;28;20033;-64
2022/03/26 11:07:14;;;;;;;27.85;21.70;;;23.30;61.70;;;;;;5041354;28;20045;-65
2022/03/26 11:09:40;;;;;;;25.13;21.38;;;23.40;62.90;;;;;;5051565;28;20044;-65
2022/03/26 11:12:07;;;;;;;27.08;21.42;;;23.60;62.00;;;;;;5050199;28;20409;-67
2022/03/26 11:14:40;;;;;;;25.05;19.70;;;23.70;60.80;;;;;;5083607;28;20052;-64
2022/03/26 11:17:21;;;;;;;23.88;19.83;;;23.60;60.90;;;;;;5066654;28;20052;-65
2022/03/26 11:20:17;;;;;;;25.30;20.95;;;23.40;60.00;;;;;;5051028;28;20130;-65
2022/03/26 11:23:21;;;;;;;25.25;20.30;;;23.40;61.90;;;;;;5051223;28;20041;-65
2022/03/26 11:26:01;;;;;;;26.95;19.17;;;23.70;61.80;;;;;;5049162;28;20409;-65
2022/03/26 11:28:35;;;;;;;26.20;19.67;;;24.00;61.40;;;;;;5049747;28;20041;-65
2022/03/26 11:31:27;;;;;;;29.83;20.30;;;24.10;60.60;;;;;;5051171;28;20090;-65
2022/03/26 11:34:04;;;;;;;21.23;18.42;;;24.20;60.40;;;;;;5033415;28;20045;-64
2022/03/26 11:36:30;;;;;;;24.67;20.88;;;24.30;59.90;;;;;;5047270;28;20393;-63
2022/03/26 11:39:07;;;;;;;24.08;18.80;;;24.30;59.30;;;;;;5049851;28;20045;-63
2022/03/26 11:41:34;;;;;;;20.95;17.15;;;24.00;60.00;;;;;;5051037;28;20477;-63
2022/03/26 11:44:01;;;;;;;22.13;16.48;;;24.00;61.00;;;;;;5050968;28;20567;-64
2022/03/26 11:52:29;;;;;;;19.15;16.13;;;23.70;59.20;;;;;;5054681;28;20041;-64
2022/03/26 11:55:24;;;;;;;16.58;12.65;;;23.90;59.80;;;;;;5036935;28;20041;-63
2022/03/26 11:58:24;;;;;;;15.13;11.88;;;23.90;57.90;;;;;;5053250;28;20557;-64
2022/03/26 12:00:53;;;;;;;14.50;9.90;;;23.50;57.10;;;;;;5053364;28;20045;-64
2022/03/26 12:03:24;;;;;;;11.85;9.98;;;23.30;57.10;;;;;;5053117;28;20037;-65
2022/03/26 12:08:55;;;;;;;14.73;11.30;;;22.70;58.50;;;;;;5053283;28;20060;-65
2022/03/26 12:11:32;;;;;;;13.77;10.27;;;22.50;58.60;;;;;;5050722;28;20041;-65
2022/03/26 12:14:07;;;;;;;13.30;9.30;;;22.40;59.80;;;;;;5052845;28;20045;-64
2022/03/26 12:16:55;;;;;;;11.80;9.35;;;22.40;60.10;;;;;;5053020;28;20048;-64
2022/03/26 12:19:46;;;;;;;10.75;9.02;;;22.60;59.70;;;;;;5053243;28;20442;-64
2022/03/26 12:22:26;;;;;;;11.63;8.18;;;22.70;59.20;;;;;;5053089;28;20610;-64
2022/03/26 12:24:57;;;;;;;9.95;8.15;;;22.60;58.40;;;;;;5052740;28;20088;-64
2022/03/26 12:27:24;;;;;;;12.35;8.70;;;22.60;59.30;;;;;;5052732;28;20497;-64
2022/03/26 12:29:56;;;;;;;10.80;8.43;;;22.50;59.10;;;;;;5053099;28;20053;-64
2022/03/26 12:32:29;;;;;;;12.30;8.45;;;22.30;59.30;;;;;;5036074;28;20055;-64
2022/03/26 12:34:58;;;;;;;10.50;8.48;;;22.30;60.10;;;;;;5052558;28;20596;-64
2022/03/26 12:37:25;;;;;;;;;;;22.30;59.50;;;;;;5050543;28;20041;-65
2022/03/26 12:39:52;;;;;;;10.70;8.63;;;22.50;58.80;;;;;;5052605;28;20420;-64
2022/03/26 12:42:19;;;;;;;12.05;8.82;;;22.40;58.00;;;;;;5052473;28;20554;-64